Startpagina
METAR-TAF:

METAR-TAF

Vliegvelden :

Geilenkirchen, Duitsland

breedte: 50-57-39N, lengte: 006-2-33E, hoogte: 90 m

Actueel weer

Dit bericht is 59 minuten geleden gemaakt, om 17:50 UTC
Wind 4 kt uit het noordwesten
Temperatuur 20°C
Vochtigheid 64%
Druk 1007 hPa
Zicht 10 km of meer
Weinig wolken op 4500 ft
Verspreide wolken op 6000 ft

METAR: ETNG 271750Z 31004KT 9999 FEW045 SCT060 20/13 Q1007

Tijdstip: 20:49 (18:49 UTC)

Verwachting

Dit bericht is 1 uur en het 49 minuten geleden gemaakt, om 17:00 UTC
Verwachting geldig van 27 om 18 UTC tot 28 om 09 UTC
Wind 10 kt uit het westen
Zicht 10 km of meer
Verspreide wolken op 4000 ft
Wijzigt naar
van 26 om 17 UTC tot 26 om 19 UTC
Wind 5 kt uit het westzuidwesten
Wijzigt naar
van 28 om 06 UTC tot 29 om 08 UTC
Wind 12 kt uit het westzuidwesten met uitschieters tot 20 kt

TAF: ETNG 271700Z 2718/2809 27010KT 9999 SCT040 BECMG 2617/2619 24005KT BECMG 2806/2908 24012G20KT

Waarnemingen en weersverwachtingen van meer dan 4000 vliegvelden (METAR en TAF).

De beschikbare stations zijn de gele en rode punten op de kaart.

Ga met uw muis naar het station om de naam te zien.

Klik dan om waarnemingen en weersverwachtingen te zien.

kaart wijzigen: klik op de groene knoppen met een zwart kruis om in te zoomen, op de groene knop met een streepje om uit te zoomen of op de groene pijlen voor aangrenzende kaarten.


METAR-TAF: